createdAt,value
2023-05-19T04:03:34.452Z,8.10
2023-05-19T04:07:46.976Z,8.08
2023-05-19T04:11:58.574Z,8.10
2023-05-19T04:16:10.220Z,8.12
2023-05-19T04:20:21.794Z,8.22
2023-05-19T04:24:33.826Z,8.24
2023-05-19T04:28:45.814Z,8.29
2023-05-19T04:32:58.198Z,8.37
2023-05-19T04:37:10.353Z,8.49
2023-05-19T04:41:22.967Z,8.42
2023-05-19T04:45:34.921Z,8.55
2023-05-19T04:49:48.354Z,8.60
2023-05-19T04:54:00.237Z,8.59
2023-05-19T04:58:12.020Z,8.80
2023-05-19T05:02:23.858Z,8.74
2023-05-19T05:06:38.619Z,8.85
2023-05-19T05:10:52.680Z,8.96
2023-05-19T05:15:06.892Z,9.01
2023-05-19T05:19:18.784Z,9.02
2023-05-19T05:23:30.702Z,9.16
2023-05-19T05:27:42.735Z,9.33
2023-05-19T05:31:54.489Z,10.49
2023-05-19T05:36:07.654Z,12.47
2023-05-19T05:40:25.872Z,13.00
2023-05-19T05:44:38.389Z,13.40
2023-05-19T05:48:51.542Z,15.28
2023-05-19T05:53:06.517Z,14.93
2023-05-19T05:57:19.569Z,14.34
2023-05-19T06:01:33.592Z,13.79
2023-05-19T06:05:46.861Z,13.87
2023-05-19T06:09:58.514Z,13.39
2023-05-19T06:14:10.566Z,14.17
2023-05-19T06:18:51.358Z,15.07
2023-05-19T06:23:03.442Z,13.73
2023-05-19T06:27:15.570Z,13.47
2023-05-19T06:31:29.003Z,13.83
2023-05-19T06:35:43.716Z,14.07
2023-05-19T06:39:55.473Z,13.83
2023-05-19T06:44:08.985Z,13.70
2023-05-19T06:48:20.542Z,13.59
2023-05-19T06:52:32.824Z,13.62
2023-05-19T06:56:46.221Z,13.67
2023-05-19T07:00:59.396Z,13.61
2023-05-19T07:05:16.693Z,13.57
2023-05-19T07:09:33.291Z,13.67
2023-05-19T07:13:44.927Z,13.84
2023-05-19T07:17:58.671Z,13.65
2023-05-19T07:22:10.880Z,14.11
2023-05-19T07:26:22.720Z,14.03
2023-05-19T07:30:34.495Z,13.35
2023-05-19T07:34:46.368Z,13.67
2023-05-19T07:38:57.997Z,13.95
2023-05-19T07:43:09.564Z,13.97
2023-05-19T07:47:21.121Z,14.40
2023-05-19T07:51:33.161Z,14.43
2023-05-19T07:55:45.206Z,14.38
2023-05-19T07:59:56.860Z,14.24
2023-05-19T08:04:11.924Z,14.36
2023-05-19T08:08:24.743Z,14.25
2023-05-19T08:12:36.634Z,14.27
2023-05-19T08:16:50.221Z,14.45
2023-05-19T08:21:05.431Z,14.70
2023-05-19T08:25:17.517Z,14.75
2023-05-19T08:34:21.166Z,14.81
2023-05-19T08:38:33.376Z,14.72
2023-05-19T08:42:46.483Z,14.76
2023-05-19T08:47:03.514Z,14.97
2023-05-19T08:51:26.141Z,14.91
2023-05-19T08:55:50.209Z,15.06
2023-05-19T09:00:04.404Z,15.08
2023-05-19T09:04:17.036Z,15.12
2023-05-19T09:08:28.901Z,15.18
2023-05-19T09:12:41.793Z,15.16
2023-05-19T09:16:54.052Z,15.36
2023-05-19T09:21:07.322Z,15.26
2023-05-19T09:25:19.639Z,15.51
2023-05-19T09:29:31.479Z,15.60
2023-05-19T09:33:45.587Z,15.57
2023-05-19T09:37:57.736Z,15.71
2023-05-19T09:42:09.276Z,15.84
2023-05-19T09:46:28.284Z,15.78
2023-05-19T09:50:40.223Z,15.98
2023-05-19T09:54:52.161Z,15.82
2023-05-19T09:59:04.068Z,15.75
2023-05-19T10:03:17.776Z,15.74
2023-05-19T10:07:29.811Z,16.09
2023-05-19T10:11:41.876Z,15.97
2023-05-19T10:15:58.824Z,16.52
2023-05-19T10:20:16.123Z,16.32
2023-05-19T10:24:27.803Z,16.13
2023-05-19T10:28:42.940Z,16.32
2023-05-19T10:32:57.175Z,16.15
2023-05-19T10:37:20.557Z,16.27
2023-05-19T10:41:41.498Z,16.51
2023-05-19T10:45:54.630Z,16.74
2023-05-19T10:50:07.275Z,16.85
2023-05-19T10:54:40.683Z,17.09
2023-05-19T10:58:52.949Z,16.96
2023-05-19T11:03:14.743Z,17.22
2023-05-19T11:07:26.536Z,17.20
2023-05-19T11:11:48.176Z,17.27
2023-05-19T11:16:07.616Z,17.45
2023-05-19T11:20:30.624Z,17.61
2023-05-19T11:24:50.568Z,17.54
2023-05-19T11:29:02.321Z,17.53
2023-05-19T11:33:15.292Z,17.74
2023-05-19T11:37:29.695Z,17.80
2023-05-19T11:41:41.613Z,18.06
2023-05-19T11:46:14.452Z,18.03
2023-05-19T11:50:26.641Z,18.06
2023-05-19T11:54:39.308Z,18.13
2023-05-19T11:58:53.284Z,18.01
2023-05-19T12:03:05.623Z,18.28
2023-05-19T12:07:19.301Z,18.42
2023-05-19T12:11:31.762Z,18.46
2023-05-19T12:15:43.511Z,18.06
2023-05-19T12:19:55.164Z,18.40
2023-05-19T12:24:07.104Z,18.61
2023-05-19T12:28:19.547Z,18.50
2023-05-19T12:32:34.174Z,18.44
2023-05-19T12:36:46.548Z,18.36
2023-05-19T12:41:01.070Z,18.53
2023-05-19T12:45:12.615Z,18.55
2023-05-19T12:49:24.233Z,18.44
2023-05-19T12:53:37.520Z,18.27
2023-05-19T12:57:51.843Z,18.31
2023-05-19T13:02:03.549Z,18.35
2023-05-19T13:06:15.198Z,18.60
2023-05-19T13:10:27.713Z,18.47
2023-05-19T13:14:41.756Z,18.44
2023-05-19T13:18:53.439Z,18.06
2023-05-19T13:23:05.804Z,18.15
2023-05-19T13:27:17.445Z,18.34
2023-05-19T13:31:28.993Z,18.29
2023-05-19T13:35:40.556Z,18.21
2023-05-19T13:39:52.301Z,18.24
2023-05-19T13:44:03.913Z,18.40
2023-05-19T13:48:15.623Z,18.43
2023-05-19T13:52:58.360Z,18.24
2023-05-19T13:56:58.681Z,18.33
2023-05-19T14:01:10.313Z,18.40
2023-05-19T14:05:21.904Z,18.35
2023-05-19T14:09:33.930Z,18.67
2023-05-19T14:13:46.208Z,18.63
2023-05-19T14:17:58.973Z,18.56
2023-05-19T14:22:10.753Z,18.59
2023-05-19T14:26:22.480Z,18.38
2023-05-19T14:30:34.356Z,18.49
2023-05-19T14:34:46.144Z,18.20
2023-05-19T14:38:57.755Z,18.26
2023-05-19T14:43:09.591Z,18.06
2023-05-19T14:47:21.342Z,18.04
2023-05-19T14:51:32.985Z,17.98
2023-05-19T14:55:44.590Z,18.03
2023-05-19T14:59:56.398Z,17.85
2023-05-19T15:04:08.065Z,17.90
2023-05-19T15:08:19.637Z,17.76
2023-05-19T15:12:31.258Z,17.60
2023-05-19T15:16:43.013Z,17.53
2023-05-19T15:20:54.571Z,17.51
2023-05-19T15:25:06.734Z,17.64
2023-05-19T15:29:18.291Z,17.61
2023-05-19T15:33:29.867Z,17.52
2023-05-19T15:37:41.472Z,17.43
2023-05-19T15:41:53.178Z,17.34
2023-05-19T15:46:05.238Z,17.24
2023-05-19T15:50:17.099Z,17.19
2023-05-19T15:54:28.837Z,17.15
2023-05-19T15:58:40.481Z,16.99
2023-05-19T16:02:52.096Z,16.95
2023-05-19T16:07:04.356Z,16.97
2023-05-19T16:11:20.572Z,16.98
2023-05-19T16:15:32.136Z,17.06
2023-05-19T16:19:43.708Z,17.07
2023-05-19T16:23:55.339Z,17.07
2023-05-19T16:28:07.033Z,17.07
2023-05-19T16:32:18.630Z,17.08
2023-05-19T16:36:30.194Z,17.07
2023-05-19T16:40:41.775Z,16.98
2023-05-19T16:44:53.341Z,17.05
2023-05-19T16:49:05.970Z,17.15
2023-05-19T16:53:17.533Z,17.11
2023-05-19T16:57:29.080Z,17.12
2023-05-19T17:01:40.873Z,17.07
2023-05-19T17:05:52.544Z,17.10
2023-05-19T17:10:04.420Z,17.11
2023-05-19T17:14:16.039Z,17.13
2023-05-19T17:18:28.195Z,17.04
2023-05-19T17:22:39.784Z,16.99
2023-05-19T17:26:51.428Z,16.89
2023-05-19T17:31:09.991Z,16.77
2023-05-19T17:35:21.582Z,16.78
2023-05-19T17:39:33.228Z,16.84
2023-05-19T17:43:44.903Z,16.78
2023-05-19T17:47:56.576Z,16.78
2023-05-19T17:52:08.782Z,16.72
2023-05-19T17:56:22.025Z,16.73
2023-05-19T18:00:34.169Z,16.61
2023-05-19T18:04:46.508Z,16.60
2023-05-19T18:09:01.040Z,16.56
2023-05-19T18:13:15.424Z,16.49
2023-05-19T18:17:27.064Z,16.45
2023-05-19T18:21:38.639Z,16.36
2023-05-19T18:25:51.711Z,16.30
2023-05-19T18:30:03.370Z,16.25
2023-05-19T18:34:14.939Z,16.20
2023-05-19T18:38:26.554Z,16.10
2023-05-19T18:42:38.078Z,16.06
2023-05-19T18:46:49.746Z,15.99
2023-05-19T18:51:03.420Z,15.92
2023-05-19T18:55:15.011Z,15.82
2023-05-19T18:59:26.793Z,15.72
2023-05-19T19:03:38.391Z,15.68
2023-05-19T19:07:50.197Z,15.61
2023-05-19T19:12:02.035Z,15.56
2023-05-19T19:16:13.692Z,15.49
2023-05-19T19:20:25.268Z,15.46
2023-05-19T19:24:36.936Z,15.39
2023-05-19T19:28:48.494Z,15.35
2023-05-19T19:33:00.222Z,15.29
2023-05-19T19:37:14.290Z,15.23
2023-05-19T19:41:28.030Z,15.23
2023-05-19T19:45:39.577Z,15.13
2023-05-19T19:49:51.325Z,15.12
2023-05-19T19:54:03.728Z,15.06
2023-05-19T19:58:15.364Z,15.02
2023-05-19T20:02:27.007Z,15.04
2023-05-19T20:06:38.726Z,15.01
2023-05-19T20:10:50.562Z,15.03
2023-05-19T20:15:02.130Z,14.98
2023-05-19T20:19:13.748Z,14.91
2023-05-19T20:23:25.353Z,14.89
2023-05-19T20:27:36.908Z,14.85
2023-05-19T20:31:48.466Z,14.85
2023-05-19T20:36:00.242Z,14.82
2023-05-19T20:40:12.442Z,14.75
2023-05-19T20:44:24.093Z,14.72
2023-05-19T20:48:35.919Z,14.71
2023-05-19T20:52:47.619Z,14.66
2023-05-19T20:56:59.413Z,14.64
2023-05-19T21:01:11.264Z,14.63
2023-05-19T21:05:23.016Z,14.61
2023-05-19T21:09:34.676Z,14.61
2023-05-19T21:13:46.264Z,14.58
2023-05-19T21:17:57.884Z,14.58
2023-05-19T21:22:09.681Z,14.57
2023-05-19T21:26:22.183Z,14.56
